createdAt,value
2023-03-12T00:00:17.060Z,101123.78
2023-03-12T00:02:44.093Z,101114.84
2023-03-12T00:05:11.226Z,101114.03
2023-03-12T00:07:38.794Z,101110.59
2023-03-12T00:10:06.734Z,101099.28
2023-03-12T00:12:33.868Z,101094.16
2023-03-12T00:15:01.332Z,101111.19
2023-03-12T00:17:29.410Z,101108.06
2023-03-12T00:19:56.680Z,101115.44
2023-03-12T00:22:25.722Z,101113.44
2023-03-12T00:24:54.454Z,101117.41
2023-03-12T00:27:22.434Z,101116.72
2023-03-12T00:29:50.052Z,101115.03
2023-03-12T00:32:17.239Z,101123.38
2023-03-12T00:34:44.565Z,101111.19
2023-03-12T00:37:11.508Z,101115.88
2023-03-12T00:39:38.466Z,101109.34
2023-03-12T00:42:05.583Z,101110.34
2023-03-12T00:44:32.519Z,101117.28
2023-03-12T00:46:59.625Z,101126.91
2023-03-12T00:49:26.896Z,101123.53
2023-03-12T00:51:54.186Z,101128.91
2023-03-12T00:54:21.984Z,101128.47
2023-03-12T00:56:49.141Z,101128.47
2023-03-12T00:59:16.462Z,101122.53
2023-03-12T01:01:44.188Z,101129.03
2023-03-12T01:04:11.655Z,101130.97
2023-03-12T01:06:38.616Z,101138.34
2023-03-12T01:09:06.996Z,101142.88
2023-03-12T01:11:34.803Z,101147.69
2023-03-12T01:14:04.163Z,101144.25
2023-03-12T01:16:31.314Z,101146.50
2023-03-12T01:18:59.372Z,101145.66
2023-03-12T01:21:27.417Z,101143.38
2023-03-12T01:23:55.284Z,101146.22
2023-03-12T01:26:23.267Z,101143.38
2023-03-12T01:28:50.577Z,101140.25
2023-03-12T01:31:19.529Z,101147.34
2023-03-12T01:33:52.143Z,101142.25
2023-03-12T01:36:27.785Z,101149.59
2023-03-12T01:38:59.356Z,101143.50
2023-03-12T01:41:29.104Z,101135.69
2023-03-12T01:43:56.222Z,101139.38
2023-03-12T01:46:31.388Z,101137.94
2023-03-12T01:49:18.955Z,101136.22
2023-03-12T01:51:53.244Z,101136.53
2023-03-12T01:54:26.015Z,101135.81
2023-03-12T01:56:55.452Z,101129.84
2023-03-12T01:59:31.238Z,101130.81
2023-03-12T02:01:59.302Z,101123.59
2023-03-12T02:04:28.993Z,101137.06
2023-03-12T02:07:09.186Z,101126.28
2023-03-12T02:09:41.106Z,101129.16
2023-03-12T02:12:09.232Z,101126.28
2023-03-12T02:14:38.211Z,101125.44
2023-03-12T02:17:06.137Z,101125.44
2023-03-12T02:19:39.345Z,101113.88
2023-03-12T02:22:06.534Z,101106.78
2023-03-12T02:24:46.466Z,101108.03
2023-03-12T02:27:13.962Z,101104.34
2023-03-12T02:29:44.325Z,101114.41
2023-03-12T02:32:20.564Z,101119.78
2023-03-12T02:34:48.271Z,101107.44
2023-03-12T02:37:15.476Z,101105.59
2023-03-12T02:39:44.757Z,101107.59
2023-03-12T02:42:12.532Z,101104.47
2023-03-12T02:44:39.938Z,101104.19
2023-03-12T02:47:07.013Z,101086.34
2023-03-12T02:49:35.278Z,101097.38
2023-03-12T02:52:02.865Z,101096.53
2023-03-12T02:54:30.374Z,101106.41
2023-03-12T02:56:57.486Z,101108.41
2023-03-12T02:59:28.842Z,101123.38
2023-03-12T03:02:00.683Z,101126.06
2023-03-12T03:04:29.975Z,101119.25
2023-03-12T03:06:57.390Z,101120.50
2023-03-12T03:09:25.354Z,101120.75
2023-03-12T03:11:52.701Z,101124.69
2023-03-12T03:14:20.137Z,101131.66
2023-03-12T03:16:50.591Z,101133.50
2023-03-12T03:19:17.948Z,101134.34
2023-03-12T03:21:45.410Z,101141.44
2023-03-12T03:24:12.555Z,101150.47
2023-03-12T03:26:39.699Z,101150.19
2023-03-12T03:29:06.713Z,101155.56
2023-03-12T03:31:33.916Z,101163.50
2023-03-12T03:34:01.211Z,101164.66
2023-03-12T03:36:28.499Z,101170.03
2023-03-12T03:39:01.960Z,101180.53
2023-03-12T03:41:30.569Z,101171.47
2023-03-12T03:43:58.926Z,101176.59
2023-03-12T03:46:27.082Z,101177.06
2023-03-12T03:48:59.798Z,101182.16
2023-03-12T03:51:28.596Z,101188.25
2023-03-12T03:54:00.587Z,101193.34
2023-03-12T03:56:28.571Z,101193.34
2023-03-12T03:58:58.456Z,101203.84
2023-03-12T04:01:26.447Z,101209.50
2023-03-12T04:03:55.095Z,101211.44
2023-03-12T04:06:22.139Z,101218.41
2023-03-12T04:08:49.079Z,101224.53
2023-03-12T04:11:20.895Z,101236.09
2023-03-12T04:13:49.210Z,101239.81
2023-03-12T04:16:19.070Z,101240.31
2023-03-12T04:18:47.313Z,101247.66
2023-03-12T04:21:15.830Z,101255.53
2023-03-12T04:23:43.889Z,101260.47
2023-03-12T04:26:12.721Z,101265.50
2023-03-12T04:28:40.048Z,101266.16
2023-03-12T04:31:09.263Z,101273.47
2023-03-12T04:33:41.017Z,101271.81
2023-03-12T04:36:09.972Z,101268.38
2023-03-12T04:38:40.136Z,101264.84
2023-03-12T04:41:11.354Z,101262.03
2023-03-12T04:43:41.829Z,101277.00
2023-03-12T04:46:10.115Z,101285.16
2023-03-12T04:48:37.882Z,101279.06
2023-03-12T04:51:06.615Z,101287.03
2023-03-12T04:53:33.784Z,101289.72
2023-03-12T04:56:01.147Z,101299.47
2023-03-12T04:58:29.192Z,101297.06
2023-03-12T05:00:56.136Z,101292.66
2023-03-12T05:03:23.179Z,101295.22
2023-03-12T05:05:50.741Z,101305.34
2023-03-12T05:08:17.874Z,101309.91
2023-03-12T05:10:47.483Z,101316.09
2023-03-12T05:13:19.862Z,101309.28
2023-03-12T05:15:50.815Z,101306.09
2023-03-12T05:18:20.695Z,101306.09
2023-03-12T05:20:48.148Z,101316.00
2023-03-12T05:23:15.310Z,101323.34
2023-03-12T05:25:42.479Z,101331.50
2023-03-12T05:28:09.556Z,101337.03
2023-03-12T05:30:39.577Z,101332.88
2023-03-12T05:33:06.552Z,101332.00
2023-03-12T05:35:33.549Z,101333.72
2023-03-12T05:38:00.581Z,101337.53
2023-03-12T05:40:27.730Z,101343.00
2023-03-12T05:42:54.803Z,101344.84
2023-03-12T05:45:24.617Z,101340.22
2023-03-12T05:47:54.101Z,101340.81
2023-03-12T05:50:21.574Z,101341.78
2023-03-12T05:52:48.724Z,101346.19
2023-03-12T05:55:15.908Z,101344.22
2023-03-12T05:57:45.019Z,101346.19
2023-03-12T06:00:14.465Z,101351.53
2023-03-12T06:02:45.638Z,101356.16
2023-03-12T06:05:13.554Z,101350.94
2023-03-12T06:07:40.958Z,101355.72
2023-03-12T06:10:09.051Z,101352.03
2023-03-12T06:12:36.433Z,101360.72
2023-03-12T06:15:03.736Z,101355.19
2023-03-12T06:17:32.080Z,101359.13
2023-03-12T06:19:59.152Z,101362.50
2023-03-12T06:22:26.826Z,101358.28
2023-03-12T06:24:53.816Z,101360.97
2023-03-12T06:27:21.276Z,101365.09
2023-03-12T06:29:48.651Z,101369.59
2023-03-12T06:32:16.162Z,101372.97
2023-03-12T06:34:43.074Z,101373.25
2023-03-12T06:37:10.378Z,101371.00
2023-03-12T06:39:38.387Z,101375.88
2023-03-12T06:42:05.829Z,101385.09
2023-03-12T06:44:33.071Z,101395.09
2023-03-12T06:46:59.959Z,101399.06
2023-03-12T06:49:32.174Z,101399.75
2023-03-12T06:51:59.486Z,101406.16
2023-03-12T06:54:26.414Z,101401.72
2023-03-12T06:56:53.624Z,101398.63
2023-03-12T06:59:21.879Z,101404.34
2023-03-12T07:01:49.571Z,101405.66
2023-03-12T07:04:16.783Z,101416.34
2023-03-12T07:06:50.657Z,101408.69
2023-03-12T07:09:18.715Z,101409.56
2023-03-12T07:11:45.813Z,101421.53
2023-03-12T07:14:13.107Z,101418.69
2023-03-12T07:16:40.116Z,101426.94
2023-03-12T07:19:07.221Z,101427.72
2023-03-12T07:21:34.826Z,101446.50
2023-03-12T07:24:06.879Z,101443.47
2023-03-12T07:26:35.784Z,101444.81
2023-03-12T07:29:03.815Z,101443.66
2023-03-12T07:31:30.933Z,101444.66
2023-03-12T07:33:58.076Z,101444.00
2023-03-12T07:36:25.348Z,101447.91
2023-03-12T07:38:52.436Z,101462.69
2023-03-12T07:41:19.420Z,101466.00
2023-03-12T07:43:46.474Z,101464.19
2023-03-12T07:46:14.110Z,101470.69
2023-03-12T07:48:44.131Z,101478.09
2023-03-12T07:51:11.682Z,101487.38
2023-03-12T07:53:38.565Z,101492.44
2023-03-12T07:56:05.996Z,101494.47
2023-03-12T07:58:35.958Z,101507.38
2023-03-12T08:01:03.225Z,101503.78
2023-03-12T08:03:30.880Z,101522.06
2023-03-12T08:06:03.184Z,101526.50
2023-03-12T08:08:31.511Z,101521.06
2023-03-12T08:11:00.436Z,101528.03
2023-03-12T08:13:28.294Z,101526.44
2023-03-12T08:15:55.290Z,101532.69
2023-03-12T08:18:23.053Z,101538.91
2023-03-12T08:20:52.112Z,101547.19
2023-03-12T08:23:19.552Z,101549.63
2023-03-12T08:25:51.147Z,101538.41
2023-03-12T08:28:19.646Z,101555.91
2023-03-12T08:30:51.668Z,101557.25
2023-03-12T08:33:18.647Z,101568.88
2023-03-12T08:35:45.897Z,101569.94
2023-03-12T08:38:13.525Z,101572.25
2023-03-12T08:40:40.577Z,101573.72
2023-03-12T08:43:10.673Z,101572.47
2023-03-12T08:45:38.041Z,101592.00
2023-03-12T08:48:06.756Z,101590.72
2023-03-12T08:50:33.799Z,101585.28
2023-03-12T08:53:01.052Z,101589.47
2023-03-12T08:55:28.238Z,101592.31
2023-03-12T08:57:56.606Z,101608.31
2023-03-12T09:00:23.501Z,101609.06
2023-03-12T09:02:52.202Z,101615.09
2023-03-12T09:05:19.544Z,101612.31
2023-03-12T09:07:46.585Z,101620.56
2023-03-12T09:10:13.525Z,101619.72
2023-03-12T09:12:40.467Z,101605.16
2023-03-12T09:15:08.701Z,101600.78
2023-03-12T09:17:35.941Z,101608.31
2023-03-12T09:20:07.642Z,101600.78
2023-03-12T09:22:37.622Z,101606.88
2023-03-12T09:25:07.692Z,101611.75
2023-03-12T09:27:43.331Z,101622.34
2023-03-12T09:30:13.843Z,101621.19
2023-03-12T09:32:41.117Z,101622.31
2023-03-12T09:35:09.260Z,101622.84
2023-03-12T09:37:36.388Z,101625.97
2023-03-12T09:40:08.124Z,101629.97
2023-03-12T09:42:47.594Z,101623.09
2023-03-12T09:45:23.962Z,101634.34
2023-03-12T09:48:20.461Z,101626.31
2023-03-12T09:50:52.349Z,101621.84
2023-03-12T09:53:32.744Z,101625.13
2023-03-12T09:56:02.660Z,101625.63
2023-03-12T09:58:35.192Z,101623.19
2023-03-12T10:01:08.022Z,101624.66
2023-03-12T10:03:50.868Z,101627.38
2023-03-12T10:06:27.797Z,101618.50
2023-03-12T10:09:00.672Z,101615.75
2023-03-12T10:11:27.687Z,101615.44
2023-03-12T10:14:24.306Z,101617.03
2023-03-12T10:17:10.180Z,101614.06
2023-03-12T10:19:52.044Z,101617.97
2023-03-12T10:22:18.925Z,101605.94
2023-03-12T10:25:06.392Z,101609.66
2023-03-12T10:27:37.302Z,101597.88
2023-03-12T10:30:17.001Z,101601.72
2023-03-12T10:32:50.038Z,101596.31
2023-03-12T10:35:21.862Z,101606.28
2023-03-12T10:37:59.068Z,101610.72
2023-03-12T10:40:29.599Z,101603.56
2023-03-12T10:42:57.251Z,101606.94
2023-03-12T10:45:39.536Z,101607.03
2023-03-12T10:48:08.999Z,101605.44
2023-03-12T10:50:39.604Z,101610.53
2023-03-12T10:53:20.812Z,101611.53
2023-03-12T10:56:15.547Z,101611.38
2023-03-12T10:58:49.803Z,101612.06
2023-03-12T11:01:20.202Z,101602.13
2023-03-12T11:03:47.240Z,101603.63
2023-03-12T11:06:25.890Z,101602.81
2023-03-12T11:09:17.580Z,101604.13
2023-03-12T11:11:49.787Z,101602.06
2023-03-12T11:14:20.492Z,101592.59
2023-03-12T11:16:47.843Z,101601.13
2023-03-12T11:19:26.657Z,101601.22
2023-03-12T11:22:12.044Z,101592.50
2023-03-12T11:24:59.809Z,101588.03
2023-03-12T11:27:38.112Z,101586.66
2023-03-12T11:30:07.962Z,101586.09
2023-03-12T11:32:39.081Z,101586.56
2023-03-12T11:35:14.987Z,101591.78
2023-03-12T11:37:58.846Z,101592.72
2023-03-12T11:40:50.605Z,101586.16
2023-03-12T11:43:44.285Z,101585.75
2023-03-12T11:46:39.384Z,101588.94
2023-03-12T11:50:00.959Z,101586.72
2023-03-12T11:53:00.500Z,101584.28
2023-03-12T11:55:41.894Z,101579.16
2023-03-12T11:58:21.105Z,101575.41
2023-03-12T12:01:03.703Z,101576.13
2023-03-12T12:03:48.689Z,101586.94
2023-03-12T12:06:28.423Z,101575.78
2023-03-12T12:09:10.477Z,101584.69
2023-03-12T12:12:18.638Z,101575.56
2023-03-12T12:15:03.103Z,101572.91
2023-03-12T12:17:40.934Z,101559.00
2023-03-12T12:20:19.277Z,101561.72
2023-03-12T12:22:46.242Z,101580.00
2023-03-12T12:26:05.885Z,101572.91
2023-03-12T12:28:54.182Z,101559.69
2023-03-12T12:31:30.421Z,101561.75
2023-03-12T12:34:12.258Z,101565.16
2023-03-12T12:36:40.632Z,101563.44
2023-03-12T12:39:24.137Z,101568.00
2023-03-12T12:41:54.988Z,101563.53
2023-03-12T12:44:27.483Z,101556.22
2023-03-12T12:47:03.924Z,101559.59
2023-03-12T12:49:40.108Z,101566.28
2023-03-12T12:52:11.586Z,101554.63
2023-03-12T12:54:56.480Z,101554.97
2023-03-12T12:57:29.314Z,101551.00
2023-03-12T13:00:18.395Z,101564.13
2023-03-12T13:02:48.147Z,101554.47
2023-03-12T13:05:27.829Z,101552.94
2023-03-12T13:07:55.569Z,101554.94
2023-03-12T13:10:34.696Z,101557.69
2023-03-12T13:13:19.280Z,101551.75
2023-03-12T13:15:47.041Z,101556.50
2023-03-12T13:18:29.470Z,101546.63
2023-03-12T13:21:14.858Z,101551.66
2023-03-12T13:24:19.745Z,101555.00
2023-03-12T13:26:52.895Z,101550.38
2023-03-12T13:29:31.492Z,101546.50
2023-03-12T13:31:58.510Z,101551.91
2023-03-12T13:34:28.419Z,101540.00
2023-03-12T13:37:02.609Z,101546.06
2023-03-12T13:39:33.534Z,101556.69
2023-03-12T13:42:02.761Z,101557.97
2023-03-12T13:44:38.789Z,101553.72
2023-03-12T13:47:11.695Z,101558.47
2023-03-12T13:50:13.137Z,101556.31
2023-03-12T13:52:39.971Z,101552.69
2023-03-12T13:55:27.563Z,101553.72
2023-03-12T13:58:06.544Z,101548.00
2023-03-12T14:00:49.663Z,101552.19
2023-03-12T14:03:21.641Z,101549.72
2023-03-12T14:05:55.294Z,101558.53
2023-03-12T14:08:53.850Z,101554.81
2023-03-12T14:11:48.663Z,101566.13
2023-03-12T14:14:34.384Z,101564.72
2023-03-12T14:17:04.078Z,101561.41
2023-03-12T14:19:34.912Z,101567.84
2023-03-12T14:22:05.910Z,101561.88
2023-03-12T14:24:42.731Z,101567.09
2023-03-12T14:27:21.600Z,101556.13
2023-03-12T14:29:56.918Z,101550.19
2023-03-12T14:32:29.081Z,101548.56
2023-03-12T14:35:22.793Z,101546.41
2023-03-12T14:37:55.827Z,101552.13
2023-03-12T14:40:25.920Z,101549.34
2023-03-12T14:42:53.203Z,101558.06
2023-03-12T14:45:23.244Z,101542.88
2023-03-12T14:48:12.212Z,101550.53
2023-03-12T14:50:41.103Z,101534.88
2023-03-12T14:53:20.045Z,101539.75
2023-03-12T14:55:47.315Z,101545.75
2023-03-12T14:58:20.729Z,101537.09
2023-03-12T15:00:58.017Z,101546.06
2023-03-12T15:03:25.533Z,101548.34
2023-03-12T15:05:52.809Z,101542.66
2023-03-12T15:08:20.233Z,101528.59
2023-03-12T15:11:06.031Z,101540.66
2023-03-12T15:13:33.078Z,101544.22
2023-03-12T15:16:00.309Z,101545.47
2023-03-12T15:18:30.100Z,101545.50
2023-03-12T15:20:59.173Z,101546.09
2023-03-12T15:23:28.118Z,101544.06
2023-03-12T15:26:14.045Z,101537.66
2023-03-12T15:28:42.214Z,101535.94
2023-03-12T15:31:12.057Z,101522.25
2023-03-12T15:33:39.704Z,101524.63
2023-03-12T15:36:15.642Z,101509.03
2023-03-12T15:38:52.352Z,101512.69
2023-03-12T15:41:26.681Z,101508.38
2023-03-12T15:44:01.489Z,101509.38
2023-03-12T15:46:28.849Z,101518.50
2023-03-12T15:48:59.365Z,101513.91
2023-03-12T15:51:40.670Z,101509.25
2023-03-12T15:54:28.045Z,101508.69
2023-03-12T15:56:55.672Z,101506.84
2023-03-12T15:59:27.503Z,101503.44
2023-03-12T16:01:56.764Z,101509.97
2023-03-12T16:04:24.693Z,101511.22
2023-03-12T16:06:53.535Z,101507.97
2023-03-12T16:09:26.398Z,101510.53
2023-03-12T16:11:55.597Z,101499.72
2023-03-12T16:14:34.712Z,101504.16
2023-03-12T16:17:01.697Z,101508.81
2023-03-12T16:19:30.361Z,101503.09
2023-03-12T16:21:57.256Z,101507.38
2023-03-12T16:24:24.117Z,101500.09
2023-03-12T16:26:57.519Z,101496.88
2023-03-12T16:29:33.424Z,101493.59
2023-03-12T16:32:00.912Z,101493.91
2023-03-12T16:34:28.939Z,101513.34
2023-03-12T16:36:55.908Z,101500.84
2023-03-12T16:39:24.259Z,101509.53
2023-03-12T16:41:51.515Z,101504.81
2023-03-12T16:44:21.982Z,101511.09
2023-03-12T16:46:49.008Z,101520.16
2023-03-12T16:49:18.148Z,101516.47
2023-03-12T16:51:48.283Z,101516.78
2023-03-12T16:54:15.673Z,101517.38
2023-03-12T16:56:46.458Z,101516.22
2023-03-12T16:59:27.677Z,101516.47
2023-03-12T17:01:54.711Z,101516.59
2023-03-12T17:04:21.709Z,101513.91
2023-03-12T17:06:48.723Z,101513.75
2023-03-12T17:09:15.681Z,101515.31
2023-03-12T17:11:43.398Z,101506.22
2023-03-12T17:14:22.062Z,101510.06
2023-03-12T17:16:49.633Z,101521.84
2023-03-12T17:19:17.109Z,101520.09
2023-03-12T17:21:44.436Z,101526.88
2023-03-12T17:24:14.199Z,101532.81
2023-03-12T17:26:42.532Z,101530.47
2023-03-12T17:29:09.578Z,101540.09
2023-03-12T17:31:37.831Z,101538.28
2023-03-12T17:34:05.407Z,101539.47
2023-03-12T17:36:35.350Z,101534.38
2023-03-12T17:39:02.366Z,101542.56
2023-03-12T17:41:30.946Z,101536.09
2023-03-12T17:44:01.693Z,101539.66
2023-03-12T17:46:30.712Z,101547.00
2023-03-12T17:48:57.723Z,101543.44
2023-03-12T17:51:25.202Z,101548.91
2023-03-12T17:53:52.275Z,101547.00
2023-03-12T17:56:19.209Z,101551.41
2023-03-12T17:58:46.267Z,101549.63
2023-03-12T18:01:13.643Z,101550.91
2023-03-12T18:03:41.095Z,101543.22
2023-03-12T18:06:08.987Z,101547.16
2023-03-12T18:08:36.397Z,101553.50
2023-03-12T18:11:03.554Z,101555.59
2023-03-12T18:13:30.858Z,101560.31
2023-03-12T18:15:59.094Z,101562.81
2023-03-12T18:18:26.728Z,101566.25
2023-03-12T18:20:53.743Z,101561.09
2023-03-12T18:23:20.929Z,101570.63
2023-03-12T18:25:47.900Z,101569.31
2023-03-12T18:28:15.514Z,101573.59
2023-03-12T18:30:46.959Z,101575.88
2023-03-12T18:33:14.661Z,101575.09
2023-03-12T18:35:42.970Z,101583.13
2023-03-12T18:38:09.997Z,101579.22
2023-03-12T18:40:36.955Z,101578.97
2023-03-12T18:43:04.235Z,101587.91
2023-03-12T18:45:31.366Z,101581.63
2023-03-12T18:47:58.313Z,101576.47
2023-03-12T18:50:25.762Z,101578.19
2023-03-12T18:52:52.805Z,101576.28
2023-03-12T18:55:19.864Z,101581.81
2023-03-12T18:57:47.749Z,101587.81
2023-03-12T19:00:19.513Z,101582.50
2023-03-12T19:02:48.403Z,101586.69
2023-03-12T19:05:16.201Z,101597.06
2023-03-12T19:07:43.790Z,101599.72
2023-03-12T19:10:15.333Z,101596.44
2023-03-12T19:12:52.174Z,101611.47
2023-03-12T19:15:24.334Z,101600.38
2023-03-12T19:17:51.478Z,101594.13
2023-03-12T19:20:18.589Z,101599.53
2023-03-12T19:22:45.698Z,101591.94
2023-03-12T19:25:12.902Z,101596.09
2023-03-12T19:27:39.965Z,101595.97
2023-03-12T19:30:07.704Z,101607.34
2023-03-12T19:32:43.235Z,101598.00
2023-03-12T19:35:13.386Z,101600.69
2023-03-12T19:37:40.824Z,101595.13
2023-03-12T19:40:08.383Z,101601.94
2023-03-12T19:42:35.240Z,101597.69
2023-03-12T19:45:02.214Z,101598.53
2023-03-12T19:47:29.460Z,101592.56
2023-03-12T19:49:56.795Z,101600.78
2023-03-12T19:52:24.447Z,101596.25
2023-03-12T19:55:03.376Z,101600.56
2023-03-12T19:57:31.945Z,101606.41
2023-03-12T19:59:58.834Z,101608.56
2023-03-12T20:02:26.555Z,101611.16
2023-03-12T20:04:55.531Z,101613.22
2023-03-12T20:07:22.744Z,101618.59
2023-03-12T20:09:50.023Z,101615.88
2023-03-12T20:12:17.064Z,101617.25
2023-03-12T20:14:44.109Z,101615.75
2023-03-12T20:17:12.307Z,101610.56
2023-03-12T20:19:39.608Z,101610.06
2023-03-12T20:22:07.481Z,101610.78
2023-03-12T20:24:34.530Z,101607.69
2023-03-12T20:27:01.922Z,101606.72
2023-03-12T20:29:28.884Z,101599.38
2023-03-12T20:31:55.981Z,101608.16
2023-03-12T20:34:23.248Z,101615.00
2023-03-12T20:36:50.451Z,101611.31
2023-03-12T20:39:20.681Z,101605.94
2023-03-12T20:41:49.344Z,101597.59
2023-03-12T20:44:16.750Z,101594.63
2023-03-12T20:46:43.656Z,101589.53
2023-03-12T20:49:10.765Z,101583.84
2023-03-12T20:51:37.671Z,101593.78
2023-03-12T20:54:04.726Z,101592.91
2023-03-12T20:56:31.878Z,101589.25
2023-03-12T20:58:59.591Z,101588.38
2023-03-12T21:01:26.954Z,101596.34
2023-03-12T21:03:57.523Z,101587.06
2023-03-12T21:06:24.592Z,101580.41
2023-03-12T21:08:52.068Z,101590.16
2023-03-12T21:11:19.274Z,101586.59
2023-03-12T21:13:46.294Z,101573.81
2023-03-12T21:16:13.575Z,101586.88
2023-03-12T21:18:40.649Z,101593.13
2023-03-12T21:21:08.616Z,101597.94
2023-03-12T21:23:36.558Z,101605.28
2023-03-12T21:26:09.550Z,101601.59
2023-03-12T21:28:36.932Z,101606.41
2023-03-12T21:31:09.677Z,101603.56
2023-03-12T21:33:37.355Z,101589.50
2023-03-12T21:36:06.512Z,101588.66
2023-03-12T21:38:36.298Z,101598.44
2023-03-12T21:41:17.203Z,101598.81
2023-03-12T21:43:45.141Z,101591.16
2023-03-12T21:46:14.603Z,101596.66
2023-03-12T21:48:44.904Z,101596.06
2023-03-12T21:51:14.461Z,101590.69
2023-03-12T21:53:41.618Z,101590.94
2023-03-12T21:56:09.703Z,101578.47
2023-03-12T21:58:37.418Z,101572.22
2023-03-12T22:01:13.297Z,101574.91
2023-03-12T22:03:41.858Z,101582.41
2023-03-12T22:06:10.307Z,101573.31
2023-03-12T22:08:37.787Z,101569.91
2023-03-12T22:11:06.404Z,101568.78
2023-03-12T22:13:33.771Z,101572.34
2023-03-12T22:16:03.962Z,101568.19
2023-03-12T22:18:31.020Z,101560.88
2023-03-12T22:21:01.455Z,101558.03
2023-03-12T22:23:28.768Z,101556.47
2023-03-12T22:25:55.889Z,101556.47
2023-03-12T22:28:25.711Z,101556.56
2023-03-12T22:31:04.850Z,101556.00
2023-03-12T22:33:32.507Z,101550.84
2023-03-12T22:35:59.644Z,101551.19
2023-03-12T22:38:26.594Z,101553.06
2023-03-12T22:40:55.616Z,101543.97
2023-03-12T22:43:24.974Z,101534.34
2023-03-12T22:45:54.947Z,101541.28
2023-03-12T22:48:21.901Z,101547.69
2023-03-12T22:50:57.767Z,101537.75
2023-03-12T22:53:24.731Z,101533.75
2023-03-12T22:56:08.918Z,101537.16
2023-03-12T22:58:36.351Z,101528.38
2023-03-12T23:01:15.776Z,101526.66
2023-03-12T23:03:45.074Z,101532.03
2023-03-12T23:06:17.433Z,101526.66
2023-03-12T23:08:47.065Z,101523.22
2023-03-12T23:11:15.626Z,101517.00
2023-03-12T23:13:44.728Z,101509.06
2023-03-12T23:16:15.799Z,101507.34
2023-03-12T23:18:44.620Z,101505.91
2023-03-12T23:21:15.031Z,101497.09
2023-03-12T23:23:43.619Z,101495.25
2023-03-12T23:26:19.298Z,101495.38
2023-03-12T23:28:47.523Z,101497.09
2023-03-12T23:31:16.219Z,101498.81
2023-03-12T23:33:44.070Z,101491.44
2023-03-12T23:36:14.178Z,101498.53
2023-03-12T23:38:41.707Z,101496.59
2023-03-12T23:41:19.658Z,101496.59
2023-03-12T23:43:47.071Z,101497.44
2023-03-12T23:46:17.068Z,101486.91
2023-03-12T23:48:45.848Z,101487.06
2023-03-12T23:51:16.600Z,101486.34
2023-03-12T23:53:45.591Z,101494.41
2023-03-12T23:56:15.313Z,101488.31
2023-03-12T23:58:43.544Z,101489.41
